sensor_id;sensor_type;location;lat;lon;timestamp;pressure;altitude;pressure_sealevel;temperature;humidity
23170;BME280;11753;43.144;24.714;2022-12-07T00:00:44;99765.47;;;5.93;100.00
23170;BME280;11753;43.144;24.714;2022-12-07T00:01:45;99774.22;;;5.92;100.00
23170;BME280;11753;43.144;24.714;2022-12-07T00:02:46;99761.91;;;5.94;100.00
23170;BME280;11753;43.144;24.714;2022-12-07T00:03:48;99772.09;;;5.97;100.00
23170;BME280;11753;43.144;24.714;2022-12-07T00:04:49;99765.22;;;5.96;100.00
23170;BME280;11753;43.144;24.714;2022-12-07T00:05:50;99760.47;;;6.01;100.00
23170;BME280;11753;43.144;24.714;2022-12-07T00:06:51;99765.69;;;6.01;100.00
23170;BME280;11753;43.144;24.714;2022-12-07T00:07:52;99763.78;;;6.03;100.00
23170;BME280;11753;43.144;24.714;2022-12-07T00:08:53;99764.03;;;6.00;100.00
23170;BME280;11753;43.144;24.714;2022-12-07T00:09:53;99766.41;;;6.03;100.00
23170;BME280;11753;43.144;24.714;2022-12-07T00:10:53;99759.25;;;6.05;100.00
23170;BME280;11753;43.144;24.714;2022-12-07T00:11:54;99760.91;;;6.06;100.00
23170;BME280;11753;43.144;24.714;2022-12-07T00:12:54;99760.00;;;6.07;100.00
23170;BME280;11753;43.144;24.714;2022-12-07T00:13:56;99764.25;;;6.09;100.00
23170;BME280;11753;43.144;24.714;2022-12-07T00:14:56;99764.25;;;6.09;100.00
23170;BME280;11753;43.144;24.714;2022-12-07T00:16:04;99757.38;;;6.07;100.00
23170;BME280;11753;43.144;24.714;2022-12-07T00:17:04;99759.13;;;6.18;100.00
23170;BME280;11753;43.144;24.714;2022-12-07T00:18:05;99757.59;;;6.16;100.00
23170;BME280;11753;43.144;24.714;2022-12-07T00:19:06;99759.97;;;6.19;100.00
23170;BME280;11753;43.144;24.714;2022-12-07T00:20:06;99754.50;;;6.22;100.00
23170;BME280;11753;43.144;24.714;2022-12-07T00:22:10;99747.00;;;6.17;100.00
23170;BME280;11753;43.144;24.714;2022-12-07T00:23:11;99755.69;;;6.18;100.00
23170;BME280;11753;43.144;24.714;2022-12-07T00:24:12;99750.47;;;6.06;100.00
23170;BME280;11753;43.144;24.714;2022-12-07T00:25:13;99748.56;;;6.09;100.00
23170;BME280;11753;43.144;24.714;2022-12-07T00:26:18;99748.09;;;6.15;100.00
23170;BME280;11753;43.144;24.714;2022-12-07T00:27:19;99749.75;;;6.16;100.00
23170;BME280;11753;43.144;24.714;2022-12-07T00:28:20;99748.53;;;6.20;100.00
23170;BME280;11753;43.144;24.714;2022-12-07T00:29:24;99746.19;;;6.17;100.00
23170;BME280;11753;43.144;24.714;2022-12-07T00:30:24;99742.63;;;6.18;100.00
23170;BME280;11753;43.144;24.714;2022-12-07T00:31:27;99746.88;;;6.19;100.00
23170;BME280;11753;43.144;24.714;2022-12-07T00:32:28;99736.78;;;6.14;100.00
23170;BME280;11753;43.144;24.714;2022-12-07T00:33:29;99743.44;;;6.18;100.00
23170;BME280;11753;43.144;24.714;2022-12-07T00:34:29;99744.97;;;6.21;100.00
23170;BME280;11753;43.144;24.714;2022-12-07T00:35:30;99747.34;;;6.24;100.00
23170;BME280;11753;43.144;24.714;2022-12-07T00:36:31;99750.81;;;6.24;100.00
23170;BME280;11753;43.144;24.714;2022-12-07T00:37:34;99754.94;;;6.27;100.00
23170;BME280;11753;43.144;24.714;2022-12-07T00:38:35;99753.78;;;6.20;100.00
23170;BME280;11753;43.144;24.714;2022-12-07T00:39:36;99753.06;;;6.18;100.00
23170;BME280;11753;43.144;24.714;2022-12-07T00:40:37;99746.41;;;6.14;100.00
23170;BME280;11753;43.144;24.714;2022-12-07T00:41:37;99746.88;;;6.19;100.00
23170;BME280;11753;43.144;24.714;2022-12-07T00:42:38;99743.31;;;6.20;100.00
23170;BME280;11753;43.144;24.714;2022-12-07T00:43:39;99752.81;;;6.21;100.00
23170;BME280;11753;43.144;24.714;2022-12-07T00:44:40;99745.00;;;6.10;100.00
23170;BME280;11753;43.144;24.714;2022-12-07T00:45:41;99746.19;;;6.05;100.00
23170;BME280;11753;43.144;24.714;2022-12-07T00:46:41;99736.69;;;6.04;100.00
23170;BME280;11753;43.144;24.714;2022-12-07T00:47:42;99738.34;;;6.05;100.00
23170;BME280;11753;43.144;24.714;2022-12-07T00:48:43;99738.69;;;6.12;100.00
23170;BME280;11753;43.144;24.714;2022-12-07T00:49:44;99740.34;;;6.13;100.00
23170;BME280;11753;43.144;24.714;2022-12-07T00:50:44;99739.53;;;6.13;100.00
23170;BME280;11753;43.144;24.714;2022-12-07T00:51:44;99736.78;;;6.14;100.00
23170;BME280;11753;43.144;24.714;2022-12-07T00:52:49;99736.78;;;6.14;100.00
23170;BME280;11753;43.144;24.714;2022-12-07T00:53:49;99739.16;;;6.17;100.00
23170;BME280;11753;43.144;24.714;2022-12-07T00:54:50;99741.91;;;6.16;100.00
23170;BME280;11753;43.144;24.714;2022-12-07T00:55:50;99738.22;;;6.18;100.00
23170;BME280;11753;43.144;24.714;2022-12-07T00:56:53;99733.81;;;6.19;100.00
23170;BME280;11753;43.144;24.714;2022-12-07T00:57:53;99730.97;;;6.22;100.00
23170;BME280;11753;43.144;24.714;2022-12-07T00:58:55;99738.13;;;6.09;100.00
23170;BME280;11753;43.144;24.714;2022-12-07T00:59:56;99730.72;;;6.14;100.00
23170;BME280;11753;43.144;24.714;2022-12-07T01:00:59;99731.47;;;6.16;100.00
23170;BME280;11753;43.144;24.714;2022-12-07T01:02:00;99737.38;;;6.18;100.00
23170;BME280;11753;43.144;24.714;2022-12-07T01:03:01;99729.53;;;6.18;100.00
23170;BME280;11753;43.144;24.714;2022-12-07T01:04:01;99732.16;;;6.18;100.00
23170;BME280;11753;43.144;24.714;2022-12-07T01:05:01;99729.91;;;6.13;100.00
23170;BME280;11753;43.144;24.714;2022-12-07T01:06:02;99730.63;;;6.15;100.00
23170;BME280;11753;43.144;24.714;2022-12-07T01:07:03;99735.13;;;6.13;100.00
23170;BME280;11753;43.144;24.714;2022-12-07T01:08:04;99734.28;;;6.13;100.00
23170;BME280;11753;43.144;24.714;2022-12-07T01:09:05;99740.47;;;6.12;100.00
23170;BME280;11753;43.144;24.714;2022-12-07T01:10:06;99730.03;;;6.12;100.00
23170;BME280;11753;43.144;24.714;2022-12-07T01:11:07;99737.16;;;6.10;100.00
23170;BME280;11753;43.144;24.714;2022-12-07T01:12:07;99736.22;;;6.11;100.00
23170;BME280;11753;43.144;24.714;2022-12-07T01:13:08;99724.66;;;6.13;100.00
23170;BME280;11753;43.144;24.714;2022-12-07T01:14:08;99731.19;;;6.19;100.00
23170;BME280;11753;43.144;24.714;2022-12-07T01:15:09;99721.69;;;6.18;100.00
23170;BME280;11753;43.144;24.714;2022-12-07T01:16:10;99719.22;;;6.16;100.00
23170;BME280;11753;43.144;24.714;2022-12-07T01:17:11;99720.63;;;6.20;100.00
23170;BME280;11753;43.144;24.714;2022-12-07T01:18:12;99713.50;;;6.22;100.00
23170;BME280;11753;43.144;24.714;2022-12-07T01:19:12;99715.97;;;6.24;100.00
23170;BME280;11753;43.144;24.714;2022-12-07T01:20:12;99719.31;;;6.26;100.00
23170;BME280;11753;43.144;24.714;2022-12-07T01:21:14;99723.69;;;6.25;100.00
23170;BME280;11753;43.144;24.714;2022-12-07T01:22:15;99711.47;;;6.26;100.00
23170;BME280;11753;43.144;24.714;2022-12-07T01:23:16;99709.53;;;6.28;100.00
23170;BME280;11753;43.144;24.714;2022-12-07T01:24:17;99712.16;;;6.28;100.00
23170;BME280;11753;43.144;24.714;2022-12-07T01:25:17;99707.06;;;6.26;100.00
23170;BME280;11753;43.144;24.714;2022-12-07T01:26:20;99694.81;;;6.27;100.00
23170;BME280;11753;43.144;24.714;2022-12-07T01:27:20;99702.22;;;6.22;100.00
23170;BME280;11753;43.144;24.714;2022-12-07T01:28:21;99701.69;;;6.28;100.00
23170;BME280;11753;43.144;24.714;2022-12-07T01:29:22;99699.47;;;6.23;100.00
23170;BME280;11753;43.144;24.714;2022-12-07T01:30:23;99700.31;;;6.24;100.00
23170;BME280;11753;43.144;24.714;2022-12-07T01:31:24;99695.91;;;6.24;100.00
23170;BME280;11753;43.144;24.714;2022-12-07T01:32:26;99699.09;;;6.28;100.00
23170;BME280;11753;43.144;24.714;2022-12-07T01:33:30;99695.81;;;6.15;100.00
23170;BME280;11753;43.144;24.714;2022-12-07T01:34:31;99701.88;;;6.15;100.00
23170;BME280;11753;43.144;24.714;2022-12-07T01:35:33;99699.13;;;6.17;100.00
23170;BME280;11753;43.144;24.714;2022-12-07T01:36:34;99698.31;;;6.16;100.00
23170;BME280;11753;43.144;24.714;2022-12-07T01:37:36;99695.56;;;6.18;100.00
23170;BME280;11753;43.144;24.714;2022-12-07T01:38:36;99697.22;;;6.19;100.00
23170;BME280;11753;43.144;24.714;2022-12-07T01:39:37;99694.59;;;6.19;100.00
23170;BME280;11753;43.144;24.714;2022-12-07T01:40:37;99697.22;;;6.19;100.00
23170;BME280;11753;43.144;24.714;2022-12-07T01:41:38;99699.00;;;6.18;100.00
23170;BME280;11753;43.144;24.714;2022-12-07T01:42:40;99693.78;;;6.18;100.00
23170;BME280;11753;43.144;24.714;2022-12-07T01:45:31;99694.59;;;6.19;100.00
23170;BME280;11753;43.144;24.714;2022-12-07T01:46:36;99704.09;;;6.20;100.00
23170;BME280;11753;43.144;24.714;2022-12-07T01:47:37;99693.41;;;6.23;100.00
23170;BME280;11753;43.144;24.714;2022-12-07T01:48:40;99691.75;;;6.22;100.00
23170;BME280;11753;43.144;24.714;2022-12-07T01:49:46;99695.81;;;6.15;100.00
23170;BME280;11753;43.144;24.714;2022-12-07T01:50:48;99688.69;;;6.17;100.00
23170;BME280;11753;43.144;24.714;2022-12-07T01:51:51;99686.75;;;6.19;100.00
23170;BME280;11753;43.144;24.714;2022-12-07T01:52:55;99692.00;;;6.19;100.00
23170;BME280;11753;43.144;24.714;2022-12-07T01:53:56;99690.34;;;6.18;100.00
23170;BME280;11753;43.144;24.714;2022-12-07T01:54:59;99690.06;;;6.21;100.00
23170;BME280;11753;43.144;24.714;2022-12-07T01:56:00;99683.91;;;6.22;100.00
23170;BME280;11753;43.144;24.714;2022-12-07T01:57:01;99695.06;;;6.24;100.00
23170;BME280;11753;43.144;24.714;2022-12-07T01:58:03;99689.97;;;6.22;100.00
23170;BME280;11753;43.144;24.714;2022-12-07T01:59:04;99685.56;;;6.23;100.00
23170;BME280;11753;43.144;24.714;2022-12-07T02:00:06;99690.59;;;6.15;100.00
23170;BME280;11753;43.144;24.714;2022-12-07T02:01:07;99690.00;;;6.11;100.00
23170;BME280;11753;43.144;24.714;2022-12-07T02:02:11;99688.22;;;6.12;100.00
23170;BME280;11753;43.144;24.714;2022-12-07T02:03:18;99682.75;;;6.15;100.00
23170;BME280;11753;43.144;24.714;2022-12-07T02:04:19;99678.44;;;6.14;100.00
23170;BME280;11753;43.144;24.714;2022-12-07T02:05:21;99683.19;;;6.20;100.00
23170;BME280;11753;43.144;24.714;2022-12-07T02:06:23;99684.63;;;6.13;100.00
23170;BME280;11753;43.144;24.714;2022-12-07T02:07:24;99688.91;;;6.14;100.00
23170;BME280;11753;43.144;24.714;2022-12-07T02:08:25;99678.44;;;6.14;100.00
23170;BME280;11753;43.144;24.714;2022-12-07T02:09:26;99679.19;;;6.16;100.00
23170;BME280;11753;43.144;24.714;2022-12-07T02:10:28;99674.91;;;6.15;100.00
23170;BME280;11753;43.144;24.714;2022-12-07T02:11:28;99681.53;;;6.19;100.00
23170;BME280;11753;43.144;24.714;2022-12-07T02:12:29;99683.19;;;6.20;100.00
23170;BME280;11753;43.144;24.714;2022-12-07T02:13:30;99674.97;;;6.24;100.00
23170;BME280;11753;43.144;24.714;2022-12-07T02:14:31;99676.31;;;6.19;100.00
23170;BME280;11753;43.144;24.714;2022-12-07T02:15:50;99679.63;;;6.21;100.00
23170;BME280;11753;43.144;24.714;2022-12-07T02:18:07;99681.75;;;6.27;100.00
23170;BME280;11753;43.144;24.714;2022-12-07T02:19:18;99665.84;;;6.19;100.00
23170;BME280;11753;43.144;24.714;2022-12-07T02:20:27;99667.50;;;6.20;100.00
23170;BME280;11753;43.144;24.714;2022-12-07T02:22:44;99674.16;;;6.24;100.00
23170;BME280;11753;43.144;24.714;2022-12-07T02:30:20;99664.88;;;6.20;100.00
23170;BME280;11753;43.144;24.714;2022-12-07T02:31:21;99663.94;;;6.21;100.00
23170;BME280;11753;43.144;24.714;2022-12-07T02:33:51;99668.66;;;6.27;100.00
23170;BME280;11753;43.144;24.714;2022-12-07T02:36:09;99672.16;;;6.16;100.00
23170;BME280;11753;43.144;24.714;2022-12-07T02:37:17;99669.69;;;6.15;100.00
23170;BME280;11753;43.144;24.714;2022-12-07T02:40:54;99662.53;;;6.17;100.00
23170;BME280;11753;43.144;24.714;2022-12-07T02:41:57;99670.25;;;6.18;100.00
23170;BME280;11753;43.144;24.714;2022-12-07T02:43:04;99666.44;;;6.22;100.00
23170;BME280;11753;43.144;24.714;2022-12-07T02:44:08;99669.75;;;6.24;100.00
23170;BME280;11753;43.144;24.714;2022-12-07T02:45:10;99667.28;;;6.23;100.00
23170;BME280;11753;43.144;24.714;2022-12-07T02:46:21;99660.38;;;6.22;100.00
23170;BME280;11753;43.144;24.714;2022-12-07T02:47:23;99655.16;;;6.22;100.00
23170;BME280;11753;43.144;24.714;2022-12-07T02:48:25;99656.81;;;6.23;100.00
23170;BME280;11753;43.144;24.714;2022-12-07T02:49:29;99657.06;;;6.20;100.00
23170;BME280;11753;43.144;24.714;2022-12-07T02:50:30;99662.75;;;6.25;100.00
23170;BME280;11753;43.144;24.714;2022-12-07T02:51:31;99657.25;;;6.28;100.00
23170;BME280;11753;43.144;24.714;2022-12-07T02:52:32;99660.69;;;6.28;100.00
23170;BME280;11753;43.144;24.714;2022-12-07T02:53:37;99660.81;;;6.27;100.00
23170;BME280;11753;43.144;24.714;2022-12-07T02:54:39;99663.22;;;6.30;100.00
23170;BME280;11753;43.144;24.714;2022-12-07T02:55:40;99656.19;;;6.30;100.00
23170;BME280;11753;43.144;24.714;2022-12-07T03:01:04;99649.75;;;6.34;100.00
23170;BME280;11753;43.144;24.714;2022-12-07T03:03:18;99639.53;;;6.31;100.00
23170;BME280;11753;43.144;24.714;2022-12-07T03:04:27;99651.91;;;6.29;100.00
23170;BME280;11753;43.144;24.714;2022-12-07T03:05:34;99650.84;;;6.32;100.00
23170;BME280;11753;43.144;24.714;2022-12-07T03:06:42;99653.91;;;6.37;100.00
23170;BME280;11753;43.144;24.714;2022-12-07T03:07:50;99661.28;;;6.32;100.00
23170;BME280;11753;43.144;24.714;2022-12-07T03:08:56;99660.47;;;6.31;100.00
23170;BME280;11753;43.144;24.714;2022-12-07T03:10:07;99659.63;;;6.31;100.00
23170;BME280;11753;43.144;24.714;2022-12-07T03:13:58;99649.41;;;6.28;100.00
23170;BME280;11753;43.144;24.714;2022-12-07T03:15:05;99653.72;;;6.29;100.00
23170;BME280;11753;43.144;24.714;2022-12-07T03:16:18;99658.69;;;6.32;100.00
23170;BME280;11753;43.144;24.714;2022-12-07T03:17:21;99647.38;;;6.31;100.00
23170;BME280;11753;43.144;24.714;2022-12-07T03:18:25;99657.72;;;6.33;100.00
23170;BME280;11753;43.144;24.714;2022-12-07T03:19:28;99647.75;;;6.27;100.00
23170;BME280;11753;43.144;24.714;2022-12-07T03:20:32;99645.59;;;6.32;100.00
23170;BME280;11753;43.144;24.714;2022-12-07T03:21:38;99640.88;;;6.26;100.00
23170;BME280;11753;43.144;24.714;2022-12-07T03:22:40;99641.34;;;6.31;100.00
23170;BME280;11753;43.144;24.714;2022-12-07T03:23:42;99636.59;;;6.25;100.00
23170;BME280;11753;43.144;24.714;2022-12-07T03:24:50;99630.69;;;6.23;100.00
23170;BME280;11753;43.144;24.714;2022-12-07T03:25:54;99631.66;;;6.11;100.00
23170;BME280;11753;43.144;24.714;2022-12-07T03:27:01;99629.75;;;6.13;100.00
23170;BME280;11753;43.144;24.714;2022-12-07T03:28:05;99628.97;;;6.01;100.00
23170;BME280;11753;43.144;24.714;2022-12-07T03:29:07;99623.63;;;6.02;100.00
23170;BME280;11753;43.144;24.714;2022-12-07T03:30:20;99636.09;;;5.99;100.00
23170;BME280;11753;43.144;24.714;2022-12-07T03:31:23;99630.63;;;6.02;100.00
23170;BME280;11753;43.144;24.714;2022-12-07T03:32:33;99640.97;;;5.92;100.00
23170;BME280;11753;43.144;24.714;2022-12-07T03:33:37;99640.06;;;5.93;100.00
23170;BME280;11753;43.144;24.714;2022-12-07T03:35:44;99627.53;;;5.86;100.00
23170;BME280;11753;43.144;24.714;2022-12-07T03:40:29;99631.09;;;5.85;100.00
23170;BME280;11753;43.144;24.714;2022-12-07T03:41:33;99635.50;;;5.84;100.00
23170;BME280;11753;43.144;24.714;2022-12-07T03:42:36;99635.28;;;5.87;100.00
23170;BME280;11753;43.144;24.714;2022-12-07T03:43:44;99639.06;;;5.83;100.00
23170;BME280;11753;43.144;24.714;2022-12-07T03:44:51;99639.06;;;5.83;100.00
23170;BME280;11753;43.144;24.714;2022-12-07T03:46:27;99635.75;;;5.81;100.00
23170;BME280;11753;43.144;24.714;2022-12-07T03:53:19;99633.16;;;5.70;100.00
23170;BME280;11753;43.144;24.714;2022-12-07T03:54:41;99636.50;;;5.72;100.00
23170;BME280;11753;43.144;24.714;2022-12-07T03:55:48;99625.78;;;5.75;100.00
23170;BME280;11753;43.144;24.714;2022-12-07T04:01:58;99634.34;;;5.77;100.00
23170;BME280;11753;43.144;24.714;2022-12-07T04:03:15;99633.16;;;5.81;100.00
23170;BME280;11753;43.144;24.714;2022-12-07T04:04:15;99631.72;;;5.77;100.00
23170;BME280;11753;43.144;24.714;2022-12-07T04:05:16;99625.78;;;5.75;100.00
23170;BME280;11753;43.144;24.714;2022-12-07T04:06:17;99626.75;;;5.74;100.00
23170;BME280;11753;43.144;24.714;2022-12-07T04:07:17;99629.25;;;5.64;100.00
23170;BME280;11753;43.144;24.714;2022-12-07T04:08:23;99634.13;;;5.69;100.00
23170;BME280;11753;43.144;24.714;2022-12-07T04:09:25;99626.53;;;5.66;100.00
23170;BME280;11753;43.144;24.714;2022-12-07T04:10:26;99630.09;;;5.65;100.00
23170;BME280;11753;43.144;24.714;2022-12-07T04:11:26;99625.94;;;5.62;100.00
23170;BME280;11753;43.144;24.714;2022-12-07T04:12:30;99620.50;;;5.65;100.00
23170;BME280;11753;43.144;24.714;2022-12-07T04:13:30;99618.44;;;5.69;100.00
23170;BME280;11753;43.144;24.714;2022-12-07T04:14:51;99617.50;;;5.70;100.00
23170;BME280;11753;43.144;24.714;2022-12-07T04:15:52;99620.22;;;5.68;100.00
23170;BME280;11753;43.144;24.714;2022-12-07T04:16:54;99619.66;;;5.65;100.00
23170;BME280;11753;43.144;24.714;2022-12-07T04:17:58;99618.09;;;5.62;100.00
23170;BME280;11753;43.144;24.714;2022-12-07T04:18:59;99624.75;;;5.66;100.00
23170;BME280;11753;43.144;24.714;2022-12-07T04:20:00;99617.75;;;5.67;100.00
23170;BME280;11753;43.144;24.714;2022-12-07T04:21:09;99619.66;;;5.65;100.00
23170;BME280;11753;43.144;24.714;2022-12-07T04:22:20;99610.88;;;5.66;100.00
23170;BME280;11753;43.144;24.714;2022-12-07T04:23:23;99613.22;;;5.69;100.00
23170;BME280;11753;43.144;24.714;2022-12-07T04:24:24;99608.69;;;5.71;100.00
23170;BME280;11753;43.144;24.714;2022-12-07T04:25:27;99609.66;;;5.70;100.00
23170;BME280;11753;43.144;24.714;2022-12-07T04:26:31;99610.75;;;5.67;100.00
23170;BME280;11753;43.144;24.714;2022-12-07T04:27:32;99611.22;;;5.72;100.00
23170;BME280;11753;43.144;24.714;2022-12-07T04:28:33;99601.13;;;5.68;100.00
23170;BME280;11753;43.144;24.714;2022-12-07T04:29:35;99617.75;;;5.67;100.00
23170;BME280;11753;43.144;24.714;2022-12-07T04:30:39;99609.22;;;5.65;100.00
23170;BME280;11753;43.144;24.714;2022-12-07T04:31:43;99610.59;;;5.69;100.00
23170;BME280;11753;43.144;24.714;2022-12-07T04:32:46;99609.53;;;5.71;100.00
23170;BME280;11753;43.144;24.714;2022-12-07T04:33:47;99612.25;;;5.70;100.00
23170;BME280;11753;43.144;24.714;2022-12-07T04:34:52;99607.03;;;5.70;100.00
23170;BME280;11753;43.144;24.714;2022-12-07T04:35:52;99613.00;;;5.72;100.00
23170;BME280;11753;43.144;24.714;2022-12-07T04:36:53;99610.00;;;5.76;100.00
23170;BME280;11753;43.144;24.714;2022-12-07T04:37:53;99608.47;;;5.74;100.00
23170;BME280;11753;43.144;24.714;2022-12-07T04:38:54;99607.38;;;5.76;100.00
23170;BME280;11753;43.144;24.714;2022-12-07T04:39:55;99601.81;;;5.70;100.00
23170;BME280;11753;43.144;24.714;2022-12-07T04:40:55;99598.38;;;5.69;100.00
23170;BME280;11753;43.144;24.714;2022-12-07T04:41:56;99593.28;;;5.68;100.00
23170;BME280;11753;43.144;24.714;2022-12-07T04:42:58;99583.53;;;5.70;100.00
23170;BME280;11753;43.144;24.714;2022-12-07T04:43:59;99584.75;;;5.66;100.00
23170;BME280;11753;43.144;24.714;2022-12-07T04:45:00;99581.94;;;5.58;100.00
23170;BME280;11753;43.144;24.714;2022-12-07T04:46:01;99589.03;;;5.56;100.00
23170;BME280;11753;43.144;24.714;2022-12-07T04:47:03;99577.88;;;5.53;100.00
23170;BME280;11753;43.144;24.714;2022-12-07T04:48:06;99587.28;;;5.45;100.00
23170;BME280;11753;43.144;24.714;2022-12-07T04:49:06;99580.97;;;5.47;100.00
23170;BME280;11753;43.144;24.714;2022-12-07T04:50:08;99582.88;;;5.45;100.00
23170;BME280;11753;43.144;24.714;2022-12-07T04:51:10;99574.81;;;5.48;100.00
23170;BME280;11753;43.144;24.714;2022-12-07T04:52:11;99574.09;;;5.46;100.00
23170;BME280;11753;43.144;24.714;2022-12-07T04:53:11;99585.97;;;5.50;100.00
23170;BME280;11753;43.144;24.714;2022-12-07T04:54:13;99579.06;;;5.49;100.00
23170;BME280;11753;43.144;24.714;2022-12-07T04:55:19;99576.94;;;5.55;100.00
23170;BME280;11753;43.144;24.714;2022-12-07T04:56:22;99577.41;;;5.60;100.00
23170;BME280;11753;43.144;24.714;2022-12-07T04:57:23;99578.00;;;5.52;100.00
23170;BME280;11753;43.144;24.714;2022-12-07T04:58:26;99577.19;;;5.51;100.00
23170;BME280;11753;43.144;24.714;2022-12-07T04:59:26;99572.31;;;5.58;100.00
23170;BME280;11753;43.144;24.714;2022-12-07T05:00:27;99575.75;;;5.59;100.00
23170;BME280;11753;43.144;24.714;2022-12-07T05:01:27;99577.13;;;5.63;100.00
23170;BME280;11753;43.144;24.714;2022-12-07T05:02:28;99577.63;;;5.68;100.00
23170;BME280;11753;43.144;24.714;2022-12-07T05:03:30;99579.03;;;5.72;100.00
23170;BME280;11753;43.144;24.714;2022-12-07T05:04:31;99583.31;;;5.62;100.00
23170;BME280;11753;43.144;24.714;2022-12-07T05:05:34;99573.00;;;5.60;100.00
23170;BME280;11753;43.144;24.714;2022-12-07T05:06:44;99589.97;;;5.66;100.00
23170;BME280;11753;43.144;24.714;2022-12-07T05:07:51;99586.41;;;5.67;100.00
23170;BME280;11753;43.144;24.714;2022-12-07T05:09:07;99584.50;;;5.69;100.00
23170;BME280;11753;43.144;24.714;2022-12-07T05:10:08;99577.63;;;5.68;100.00
23170;BME280;11753;43.144;24.714;2022-12-07T05:11:43;99577.63;;;5.68;100.00
23170;BME280;11753;43.144;24.714;2022-12-07T05:12:46;99580.78;;;5.71;100.00
23170;BME280;11753;43.144;24.714;2022-12-07T05:13:46;99584.75;;;5.66;100.00
23170;BME280;11753;43.144;24.714;2022-12-07T05:14:47;99583.25;;;5.52;100.00
23170;BME280;11753;43.144;24.714;2022-12-07T05:15:55;99585.25;;;5.60;100.00
23170;BME280;11753;43.144;24.714;2022-12-07T05:16:58;99595.34;;;5.53;100.00
23170;BME280;11753;43.144;24.714;2022-12-07T05:17:58;99588.84;;;5.36;100.00
23170;BME280;11753;43.144;24.714;2022-12-07T05:18:59;99586.94;;;5.38;100.00
23170;BME280;11753;43.144;24.714;2022-12-07T05:19:59;99585.50;;;5.34;100.00
23170;BME280;11753;43.144;24.714;2022-12-07T05:20:59;99580.28;;;5.34;100.00
23170;BME280;11753;43.144;24.714;2022-12-07T05:22:04;99586.09;;;5.38;100.00
23170;BME280;11753;43.144;24.714;2022-12-07T05:23:09;99581.47;;;5.41;100.00
23170;BME280;11753;43.144;24.714;2022-12-07T05:24:12;99573.41;;;5.33;100.00
23170;BME280;11753;43.144;24.714;2022-12-07T05:25:27;99573.75;;;5.40;100.00
23170;BME280;11753;43.144;24.714;2022-12-07T05:26:28;99569.13;;;5.32;100.00
23170;BME280;11753;43.144;24.714;2022-12-07T05:27:30;99571.28;;;5.38;100.00
23170;BME280;11753;43.144;24.714;2022-12-07T05:28:32;99571.41;;;5.37;100.00
23170;BME280;11753;43.144;24.714;2022-12-07T05:29:33;99564.75;;;5.33;100.00
23170;BME280;11753;43.144;24.714;2022-12-07T05:30:34;99569.00;;;5.34;100.00
23170;BME280;11753;43.144;24.714;2022-12-07T05:31:38;99564.63;;;5.34;100.00
23170;BME280;11753;43.144;24.714;2022-12-07T05:32:44;99578.41;;;5.36;100.00
23170;BME280;11753;43.144;24.714;2022-12-07T05:33:46;99566.06;;;5.38;100.00
23170;BME280;11753;43.144;24.714;2022-12-07T05:34:49;99572.94;;;5.39;100.00
23170;BME280;11753;43.144;24.714;2022-12-07T05:35:52;99582.19;;;5.43;100.00
23170;BME280;11753;43.144;24.714;2022-12-07T05:36:56;99576.97;;;5.32;100.00
23170;BME280;11753;43.144;24.714;2022-12-07T05:37:58;99579.84;;;5.29;100.00
23170;BME280;11753;43.144;24.714;2022-12-07T05:39:02;99580.28;;;5.34;100.00
23170;BME280;11753;43.144;24.714;2022-12-07T05:40:03;99571.75;;;5.32;100.00
23170;BME280;11753;43.144;24.714;2022-12-07T05:41:09;99579.81;;;5.40;100.00
23170;BME280;11753;43.144;24.714;2022-12-07T05:47:26;99590.03;;;5.43;100.00
23170;BME280;11753;43.144;24.714;2022-12-07T05:48:27;99590.03;;;5.43;100.00
23170;BME280;11753;43.144;24.714;2022-12-07T05:49:28;99599.28;;;5.36;100.00
23170;BME280;11753;43.144;24.714;2022-12-07T05:50:29;99591.19;;;5.39;100.00
23170;BME280;11753;43.144;24.714;2022-12-07T05:51:30;99598.78;;;5.42;100.00
23170;BME280;11753;43.144;24.714;2022-12-07T05:52:30;99604.72;;;5.44;100.00
23170;BME280;11753;43.144;24.714;2022-12-07T05:53:31;99606.38;;;5.45;100.00
23170;BME280;11753;43.144;24.714;2022-12-07T05:54:32;99602.47;;;5.51;100.00
23170;BME280;11753;43.144;24.714;2022-12-07T05:55:33;99600.31;;;5.56;100.00
23170;BME280;11753;43.144;24.714;2022-12-07T05:56:34;99598.66;;;5.55;100.00
23170;BME280;11753;43.144;24.714;2022-12-07T05:57:35;99603.75;;;5.57;100.00
23170;BME280;11753;43.144;24.714;2022-12-07T05:58:36;99601.03;;;5.58;100.00
23170;BME280;11753;43.144;24.714;2022-12-07T05:59:55;99601.81;;;5.70;100.00
23170;BME280;11753;43.144;24.714;2022-12-07T06:00:56;99610.69;;;5.78;100.00
23170;BME280;11753;43.144;24.714;2022-12-07T06:01:58;99604.03;;;5.86;100.00
23170;BME280;11753;43.144;24.714;2022-12-07T06:02:58;99615.81;;;5.91;100.00
23170;BME280;11753;43.144;24.714;2022-12-07T06:03:59;99616.50;;;5.82;100.00
23170;BME280;11753;43.144;24.714;2022-12-07T06:04:59;99614.88;;;5.81;100.00
23170;BME280;11753;43.144;24.714;2022-12-07T06:06:00;99614.59;;;5.84;100.00
23170;BME280;11753;43.144;24.714;2022-12-07T06:07:01;99619.00;;;5.84;100.00
23170;BME280;11753;43.144;24.714;2022-12-07T06:08:01;99624.22;;;5.84;100.00
23170;BME280;11753;43.144;24.714;2022-12-07T06:09:03;99622.69;;;5.81;100.00
23170;BME280;11753;43.144;24.714;2022-12-07T06:10:04;99617.47;;;5.81;100.00
23170;BME280;11753;43.144;24.714;2022-12-07T06:11:04;99616.50;;;5.82;100.00
23170;BME280;11753;43.144;24.714;2022-12-07T06:12:23;99612.72;;;5.86;100.00
23170;BME280;11753;43.144;24.714;2022-12-07T06:13:38;99612.72;;;5.86;100.00
23170;BME280;11753;43.144;24.714;2022-12-07T06:14:39;99612.13;;;5.83;100.00
23170;BME280;11753;43.144;24.714;2022-12-07T06:15:40;99617.59;;;5.79;100.00